createdAt,value
2022-12-18T00:00:58.559Z,34.80
2022-12-18T00:02:01.025Z,35.00
2022-12-18T00:03:03.571Z,34.90
2022-12-18T00:04:16.036Z,35.20
2022-12-18T00:05:18.595Z,35.00
2022-12-18T00:06:24.951Z,35.00
2022-12-18T00:07:27.267Z,35.00
2022-12-18T00:08:29.871Z,35.00
2022-12-18T00:09:39.825Z,35.10
2022-12-18T00:10:43.345Z,34.90
2022-12-18T00:11:47.028Z,34.90
2022-12-18T00:12:49.689Z,34.90
2022-12-18T00:13:54.404Z,34.90
2022-12-18T00:14:56.885Z,34.80
2022-12-18T00:16:04.753Z,34.60
2022-12-18T00:17:08.003Z,34.70
2022-12-18T00:18:14.844Z,34.60
2022-12-18T00:19:18.958Z,34.60
2022-12-18T00:20:26.544Z,34.50
2022-12-18T00:21:33.536Z,34.40
2022-12-18T00:22:36.060Z,34.50
2022-12-18T00:23:40.016Z,34.40
2022-12-18T00:24:43.142Z,34.20
2022-12-18T00:25:45.779Z,34.20
2022-12-18T00:26:52.623Z,34.10
2022-12-18T00:27:55.418Z,34.30
2022-12-18T00:29:03.396Z,34.60
2022-12-18T00:30:09.346Z,34.40
2022-12-18T00:31:14.842Z,34.50
2022-12-18T00:32:17.285Z,34.80
2022-12-18T00:33:19.720Z,34.40
2022-12-18T00:34:22.027Z,34.40
2022-12-18T00:35:24.414Z,34.30
2022-12-18T00:36:30.263Z,34.30
2022-12-18T00:37:34.003Z,34.30
2022-12-18T00:38:37.262Z,34.10
2022-12-18T00:39:42.756Z,34.30
2022-12-18T00:40:51.208Z,34.40
2022-12-18T00:42:14.088Z,34.30
2022-12-18T00:43:16.649Z,34.80
2022-12-18T00:44:19.700Z,34.30
2022-12-18T00:45:23.301Z,34.40
2022-12-18T00:46:25.642Z,34.70
2022-12-18T00:47:27.972Z,34.40
2022-12-18T00:48:30.393Z,34.50
2022-12-18T00:49:32.949Z,34.20
2022-12-18T00:50:35.320Z,34.10
2022-12-18T00:51:38.187Z,34.30
2022-12-18T00:52:40.568Z,34.40
2022-12-18T00:53:43.022Z,34.50
2022-12-18T00:54:45.352Z,34.30
2022-12-18T00:55:48.277Z,34.40
2022-12-18T00:56:51.835Z,34.20
2022-12-18T00:57:54.181Z,34.40
2022-12-18T00:58:56.658Z,34.40
2022-12-18T00:59:59.125Z,35.00
2022-12-18T01:01:01.492Z,33.40
2022-12-18T01:02:04.792Z,32.60
2022-12-18T01:03:07.757Z,32.60
2022-12-18T01:04:10.730Z,33.50
2022-12-18T01:05:14.737Z,32.40
2022-12-18T01:06:18.094Z,33.10
2022-12-18T01:07:21.017Z,35.00
2022-12-18T01:08:24.136Z,35.50
2022-12-18T01:09:27.257Z,35.50
2022-12-18T01:10:30.638Z,35.00
2022-12-18T01:11:34.938Z,34.90
2022-12-18T01:12:37.693Z,35.40
2022-12-18T01:13:40.884Z,35.40
2022-12-18T01:14:43.745Z,36.10
2022-12-18T01:15:50.643Z,35.20
2022-12-18T01:16:53.062Z,35.30
2022-12-18T01:17:55.756Z,35.00
2022-12-18T01:18:58.154Z,34.90
2022-12-18T01:20:03.699Z,34.50
2022-12-18T01:21:14.099Z,34.50
2022-12-18T01:22:16.671Z,34.80
2022-12-18T01:23:20.835Z,34.30
2022-12-18T01:24:23.363Z,34.00
2022-12-18T01:25:26.109Z,34.30
2022-12-18T01:26:30.486Z,34.00
2022-12-18T01:27:34.832Z,34.60
2022-12-18T01:28:40.995Z,34.10
2022-12-18T01:29:44.593Z,34.10
2022-12-18T01:30:47.179Z,34.00
2022-12-18T01:31:49.939Z,34.40
2022-12-18T01:32:53.221Z,34.20
2022-12-18T01:33:56.634Z,34.00
2022-12-18T01:34:59.495Z,33.90
2022-12-18T01:36:03.685Z,34.40
2022-12-18T01:37:06.971Z,34.60
2022-12-18T01:38:09.755Z,34.40
2022-12-18T01:39:13.947Z,34.80
2022-12-18T01:40:17.902Z,34.60
2022-12-18T01:41:23.773Z,34.20
2022-12-18T01:42:26.784Z,34.90
2022-12-18T01:43:43.122Z,34.10
2022-12-18T01:45:10.466Z,34.60
2022-12-18T01:46:13.299Z,34.10
2022-12-18T01:47:47.568Z,34.00
2022-12-18T01:48:57.593Z,34.00
2022-12-18T01:50:07.143Z,34.30
2022-12-18T01:51:11.631Z,34.00
2022-12-18T01:52:14.717Z,35.10
2022-12-18T01:53:24.691Z,35.60
2022-12-18T01:54:31.010Z,35.40
2022-12-18T01:55:40.767Z,35.40
2022-12-18T01:56:43.158Z,35.00
2022-12-18T01:57:45.996Z,34.90
2022-12-18T01:58:54.313Z,35.10
2022-12-18T02:00:02.637Z,35.50
2022-12-18T02:01:15.703Z,35.40
2022-12-18T02:02:19.266Z,35.70
2022-12-18T02:03:21.743Z,35.80
2022-12-18T02:04:26.672Z,35.30
2022-12-18T02:05:56.696Z,35.40
2022-12-18T02:07:02.572Z,36.10
2022-12-18T02:08:27.521Z,35.20
2022-12-18T02:09:38.994Z,35.30
2022-12-18T02:10:47.746Z,35.30
2022-12-18T02:12:14.609Z,35.40
2022-12-18T02:13:37.929Z,35.90
2022-12-18T02:14:59.769Z,35.70
2022-12-18T02:16:11.979Z,35.60
2022-12-18T02:17:39.462Z,35.50
2022-12-18T02:18:50.004Z,35.20
2022-12-18T02:20:12.139Z,35.10
2022-12-18T02:21:54.551Z,35.30
2022-12-18T02:23:15.725Z,34.90
2022-12-18T02:24:24.131Z,35.40
2022-12-18T02:26:11.920Z,35.30
2022-12-18T02:27:14.605Z,36.00
2022-12-18T02:28:19.566Z,35.60
2022-12-18T02:29:28.408Z,35.10
2022-12-18T02:30:33.959Z,34.90
2022-12-18T02:31:45.468Z,35.00
2022-12-18T02:32:52.055Z,35.40
2022-12-18T02:33:57.499Z,35.50
2022-12-18T02:35:01.945Z,35.10
2022-12-18T02:36:07.329Z,35.20
2022-12-18T02:37:14.698Z,35.10
2022-12-18T02:38:18.718Z,34.90
2022-12-18T02:39:27.936Z,34.90
2022-12-18T02:40:39.220Z,34.80
2022-12-18T02:41:42.279Z,35.00
2022-12-18T02:42:44.743Z,35.60
2022-12-18T02:43:57.432Z,35.00
2022-12-18T02:45:00.213Z,35.30
2022-12-18T02:46:26.634Z,34.90
2022-12-18T02:47:33.612Z,34.90
2022-12-18T02:48:36.393Z,34.80
2022-12-18T02:49:58.347Z,35.80
2022-12-18T02:51:24.932Z,35.60
2022-12-18T02:52:37.513Z,35.30
2022-12-18T02:53:49.903Z,35.10
2022-12-18T02:55:19.852Z,35.00
2022-12-18T02:56:34.604Z,34.90
2022-12-18T02:57:45.022Z,35.10
2022-12-18T02:59:08.426Z,35.20
2022-12-18T03:00:22.743Z,34.30
2022-12-18T03:01:39.245Z,34.40
2022-12-18T03:03:13.928Z,34.60
2022-12-18T03:04:34.792Z,34.60
2022-12-18T03:05:49.610Z,34.60
2022-12-18T03:06:56.784Z,34.60
2022-12-18T03:08:25.277Z,34.60
2022-12-18T03:09:37.642Z,35.00
2022-12-18T03:10:52.255Z,35.40
2022-12-18T03:12:17.826Z,34.80
2022-12-18T03:13:38.401Z,34.70
2022-12-18T03:14:42.824Z,34.50
2022-12-18T03:15:54.029Z,34.50
2022-12-18T03:17:01.770Z,34.60
2022-12-18T03:18:13.563Z,34.60
2022-12-18T03:19:25.148Z,34.60
2022-12-18T03:20:31.977Z,35.10
2022-12-18T03:21:42.052Z,35.30
2022-12-18T03:22:48.197Z,35.70
2022-12-18T03:23:52.787Z,35.30
2022-12-18T03:24:58.540Z,35.70
2022-12-18T03:26:07.734Z,35.80
2022-12-18T03:27:15.762Z,35.20
2022-12-18T03:28:22.523Z,35.10
2022-12-18T03:29:39.786Z,35.00
2022-12-18T03:30:47.036Z,34.70
2022-12-18T03:31:55.848Z,34.10
2022-12-18T03:33:08.617Z,34.70
2022-12-18T03:34:20.580Z,34.40
2022-12-18T03:35:29.541Z,33.90
2022-12-18T03:36:33.237Z,34.00
2022-12-18T03:37:37.564Z,34.20
2022-12-18T03:38:40.304Z,34.30
2022-12-18T03:39:44.303Z,34.40
2022-12-18T03:41:00.894Z,34.70
2022-12-18T03:42:20.197Z,34.30
2022-12-18T03:44:04.567Z,34.00
2022-12-18T03:45:34.002Z,34.20
2022-12-18T03:46:49.452Z,34.10
2022-12-18T03:48:06.992Z,35.00
2022-12-18T03:49:44.020Z,34.70
2022-12-18T03:50:49.293Z,34.60
2022-12-18T03:52:03.993Z,35.20
2022-12-18T03:53:17.376Z,35.00
2022-12-18T03:54:23.023Z,34.90
2022-12-18T03:55:35.280Z,34.70
2022-12-18T03:56:52.712Z,34.00
2022-12-18T03:57:57.840Z,34.20
2022-12-18T03:59:04.092Z,34.10
2022-12-18T04:00:16.518Z,33.50
2022-12-18T04:01:37.242Z,33.50
2022-12-18T04:02:45.709Z,33.40
2022-12-18T04:03:52.331Z,33.90
2022-12-18T04:05:00.317Z,34.20
2022-12-18T04:06:04.475Z,34.20
2022-12-18T04:07:09.049Z,33.80
2022-12-18T04:08:14.500Z,33.50
2022-12-18T04:09:20.966Z,33.90
2022-12-18T04:10:24.316Z,33.60
2022-12-18T04:11:27.378Z,33.40
2022-12-18T04:12:30.994Z,33.30
2022-12-18T04:13:37.559Z,32.90
2022-12-18T04:14:44.362Z,33.30
2022-12-18T04:15:47.130Z,33.30
2022-12-18T04:16:51.086Z,33.80
2022-12-18T04:17:57.196Z,33.60
2022-12-18T04:19:01.633Z,33.40
2022-12-18T04:20:07.636Z,33.50
2022-12-18T04:21:11.461Z,33.80
2022-12-18T04:22:14.003Z,34.40
2022-12-18T04:23:20.268Z,33.60
2022-12-18T04:24:23.205Z,33.50
2022-12-18T04:25:38.946Z,33.40
2022-12-18T04:26:44.647Z,33.50
2022-12-18T04:27:51.491Z,33.60
2022-12-18T04:28:53.934Z,34.50
2022-12-18T04:29:56.768Z,34.10
2022-12-18T04:30:59.222Z,33.90
2022-12-18T04:32:01.685Z,33.90
2022-12-18T04:33:10.879Z,34.10
2022-12-18T04:34:13.955Z,34.00
2022-12-18T04:35:23.892Z,33.90
2022-12-18T04:36:27.685Z,33.50
2022-12-18T04:37:31.092Z,33.50
2022-12-18T04:38:33.753Z,33.50
2022-12-18T04:39:42.105Z,33.40
2022-12-18T04:40:51.272Z,33.40
2022-12-18T04:42:00.355Z,34.00
2022-12-18T04:43:03.619Z,34.20
2022-12-18T04:44:06.401Z,34.20
2022-12-18T04:45:09.265Z,33.80
2022-12-18T04:46:11.713Z,33.50
2022-12-18T04:47:14.356Z,33.90
2022-12-18T04:48:16.781Z,34.40
2022-12-18T04:49:19.782Z,34.10
2022-12-18T04:50:22.477Z,33.40
2022-12-18T04:51:26.788Z,33.80
2022-12-18T04:52:32.556Z,33.70
2022-12-18T04:53:35.079Z,33.70
2022-12-18T04:54:37.635Z,33.60
2022-12-18T04:55:39.973Z,33.50
2022-12-18T04:56:42.605Z,33.80
2022-12-18T04:57:47.220Z,33.80
2022-12-18T04:58:50.073Z,34.10
2022-12-18T04:59:52.680Z,33.90
2022-12-18T05:00:56.247Z,33.90
2022-12-18T05:01:59.307Z,34.00
2022-12-18T05:03:03.365Z,34.20
2022-12-18T05:04:06.350Z,33.70
2022-12-18T05:05:09.417Z,33.50
2022-12-18T05:06:12.071Z,33.60
2022-12-18T05:07:14.389Z,33.50
2022-12-18T05:08:16.878Z,34.00
2022-12-18T05:09:19.224Z,33.50
2022-12-18T05:10:21.928Z,33.60
2022-12-18T05:11:24.595Z,33.70
2022-12-18T05:12:27.006Z,33.50
2022-12-18T05:13:30.089Z,33.40
2022-12-18T05:14:32.557Z,33.90
2022-12-18T05:15:35.438Z,33.80
2022-12-18T05:16:37.805Z,34.30
2022-12-18T05:17:40.119Z,34.70
2022-12-18T05:18:42.747Z,33.80
2022-12-18T05:19:45.044Z,31.30
2022-12-18T05:20:48.245Z,34.10
2022-12-18T05:21:50.714Z,30.60
2022-12-18T05:22:53.152Z,32.00
2022-12-18T05:23:55.480Z,33.60
2022-12-18T05:24:58.841Z,35.30
2022-12-18T05:26:04.080Z,35.80
2022-12-18T05:27:06.663Z,36.20
2022-12-18T05:28:08.982Z,36.40
2022-12-18T05:29:13.170Z,36.60
2022-12-18T05:30:17.400Z,36.90
2022-12-18T05:31:19.953Z,37.70
2022-12-18T05:32:25.078Z,37.50
2022-12-18T05:33:31.343Z,37.20
2022-12-18T05:34:34.398Z,37.20
2022-12-18T05:35:36.976Z,37.20
2022-12-18T05:36:39.440Z,37.20
2022-12-18T05:37:43.375Z,37.20
2022-12-18T05:38:46.019Z,37.10
2022-12-18T05:39:48.364Z,37.00
2022-12-18T05:40:51.885Z,37.00
2022-12-18T05:41:54.325Z,36.90
2022-12-18T05:42:56.709Z,36.90
2022-12-18T05:43:59.979Z,36.80
2022-12-18T05:45:02.366Z,36.90
2022-12-18T05:46:09.747Z,36.90
2022-12-18T05:47:12.175Z,37.00
2022-12-18T05:48:16.634Z,37.00
2022-12-18T05:49:19.367Z,37.90
2022-12-18T05:50:21.745Z,30.20
2022-12-18T05:51:25.193Z,30.80
2022-12-18T05:52:27.521Z,32.70
2022-12-18T05:53:29.877Z,35.10
2022-12-18T05:54:32.206Z,36.30
2022-12-18T05:55:35.984Z,36.90
2022-12-18T05:56:38.411Z,37.30
2022-12-18T05:57:40.859Z,37.60
2022-12-18T05:58:43.631Z,37.70
2022-12-18T05:59:46.231Z,37.70
2022-12-18T06:00:48.959Z,37.60
2022-12-18T06:01:51.617Z,37.70
2022-12-18T06:02:54.131Z,37.50
2022-12-18T06:03:56.742Z,37.50
2022-12-18T06:04:59.675Z,37.60
2022-12-18T06:06:02.772Z,38.00
2022-12-18T06:07:06.344Z,37.70
2022-12-18T06:08:09.719Z,37.80
2022-12-18T06:09:12.847Z,37.90
2022-12-18T06:10:15.259Z,37.90
2022-12-18T06:11:20.962Z,37.80
2022-12-18T06:12:23.345Z,37.80
2022-12-18T06:13:25.817Z,37.90
2022-12-18T06:14:32.944Z,38.10
2022-12-18T06:15:38.610Z,38.00
2022-12-18T06:16:40.971Z,38.00
2022-12-18T06:17:43.987Z,38.10
2022-12-18T06:18:49.862Z,38.20
2022-12-18T06:19:52.367Z,38.20
2022-12-18T06:20:58.592Z,38.30
2022-12-18T06:22:00.956Z,38.20
2022-12-18T06:23:03.714Z,38.20
2022-12-18T06:24:07.929Z,38.30
2022-12-18T06:25:14.075Z,38.30
2022-12-18T06:26:17.376Z,38.20
2022-12-18T06:27:20.443Z,38.30
2022-12-18T06:28:23.334Z,38.50
2022-12-18T06:29:26.442Z,38.80
2022-12-18T06:30:28.946Z,39.00
2022-12-18T06:31:31.353Z,38.00
2022-12-18T06:32:33.697Z,31.20
2022-12-18T06:33:36.633Z,33.80
2022-12-18T06:34:39.187Z,35.80
2022-12-18T06:35:41.967Z,37.40
2022-12-18T06:36:44.359Z,38.20
2022-12-18T06:37:46.734Z,39.10
2022-12-18T06:38:49.296Z,38.70
2022-12-18T06:39:51.677Z,38.50
2022-12-18T06:40:54.050Z,38.90
2022-12-18T06:41:56.486Z,39.40
2022-12-18T06:42:59.463Z,39.30
2022-12-18T06:44:01.848Z,39.30
2022-12-18T06:45:04.561Z,39.80
2022-12-18T06:46:07.315Z,39.50
2022-12-18T06:47:09.647Z,39.50
2022-12-18T06:48:13.036Z,39.20
2022-12-18T06:49:16.869Z,39.30
2022-12-18T06:50:19.243Z,39.30
2022-12-18T06:51:23.264Z,39.40
2022-12-18T06:52:25.622Z,39.10
2022-12-18T06:53:28.517Z,39.30
2022-12-18T06:54:31.028Z,39.10
2022-12-18T06:55:33.334Z,39.10
2022-12-18T06:56:35.804Z,39.00
2022-12-18T06:57:38.946Z,39.00
2022-12-18T06:58:41.376Z,39.20
2022-12-18T06:59:43.760Z,39.30
2022-12-18T07:00:46.085Z,39.30
2022-12-18T07:01:48.876Z,39.60
2022-12-18T07:02:51.575Z,39.70
2022-12-18T07:03:55.710Z,39.70
2022-12-18T07:04:58.003Z,39.20
2022-12-18T07:06:00.639Z,39.10
2022-12-18T07:07:03.017Z,39.10
2022-12-18T07:08:05.392Z,39.10
2022-12-18T07:09:08.152Z,39.00
2022-12-18T07:10:10.664Z,38.80
2022-12-18T07:11:13.691Z,39.10
2022-12-18T07:12:15.995Z,39.10
2022-12-18T07:13:18.337Z,39.00
2022-12-18T07:14:21.069Z,39.00
2022-12-18T07:15:23.433Z,39.10
2022-12-18T07:16:26.290Z,38.90
2022-12-18T07:17:29.345Z,38.90
2022-12-18T07:18:31.809Z,39.10
2022-12-18T07:19:34.812Z,39.10
2022-12-18T07:20:37.559Z,39.20
2022-12-18T07:21:40.075Z,39.30
2022-12-18T07:22:42.563Z,39.60
2022-12-18T07:23:47.187Z,39.40
2022-12-18T07:24:49.901Z,39.50
2022-12-18T07:25:52.286Z,39.50
2022-12-18T07:26:54.758Z,38.90
2022-12-18T07:27:57.154Z,33.50
2022-12-18T07:28:59.552Z,36.30
2022-12-18T07:30:02.148Z,37.20
2022-12-18T07:31:09.598Z,38.20
2022-12-18T07:32:12.069Z,38.90
2022-12-18T07:33:14.982Z,39.10
2022-12-18T07:34:17.404Z,39.10
2022-12-18T07:35:24.722Z,39.40
2022-12-18T07:36:28.013Z,39.50
2022-12-18T07:37:30.334Z,39.60
2022-12-18T07:38:33.673Z,39.30
2022-12-18T07:39:36.024Z,39.20
2022-12-18T07:40:38.479Z,39.20
2022-12-18T07:41:47.263Z,39.10
2022-12-18T07:42:51.875Z,39.20
2022-12-18T07:43:54.185Z,39.30
2022-12-18T07:44:56.507Z,39.30
2022-12-18T07:45:59.546Z,39.20
2022-12-18T07:47:01.969Z,39.20
2022-12-18T07:48:04.511Z,39.20
2022-12-18T07:49:07.082Z,39.20
2022-12-18T07:50:09.755Z,39.30
2022-12-18T07:51:13.500Z,39.20
2022-12-18T07:52:16.225Z,39.10
2022-12-18T07:53:18.554Z,39.20
2022-12-18T07:54:20.927Z,39.20
2022-12-18T07:55:23.298Z,39.10
2022-12-18T07:56:28.647Z,39.10
2022-12-18T07:57:50.090Z,39.20
2022-12-18T07:58:54.326Z,39.10
2022-12-18T07:59:56.688Z,39.20
2022-12-18T08:01:09.129Z,36.40
2022-12-18T08:02:11.645Z,28.90
2022-12-18T08:03:14.896Z,31.50
2022-12-18T08:04:17.428Z,33.20
2022-12-18T08:05:19.866Z,34.20
2022-12-18T08:06:23.908Z,35.70
2022-12-18T08:07:27.943Z,37.10
2022-12-18T08:08:30.784Z,38.10
2022-12-18T08:09:33.133Z,38.50
2022-12-18T08:10:35.655Z,38.60
2022-12-18T08:11:38.017Z,38.70
2022-12-18T08:12:40.436Z,38.70
2022-12-18T08:13:43.153Z,38.70
2022-12-18T08:14:45.772Z,38.70
2022-12-18T08:15:55.940Z,38.60
2022-12-18T08:16:58.779Z,38.60
2022-12-18T08:18:01.192Z,38.50
2022-12-18T08:19:04.214Z,38.50
2022-12-18T08:20:07.123Z,38.70
2022-12-18T08:21:14.449Z,38.60
2022-12-18T08:22:16.890Z,38.60
2022-12-18T08:23:19.612Z,38.60
2022-12-18T08:24:22.046Z,38.50
2022-12-18T08:25:24.450Z,38.60
2022-12-18T08:26:28.948Z,38.60
2022-12-18T08:27:31.379Z,38.60
2022-12-18T08:28:34.567Z,38.50
2022-12-18T08:29:36.929Z,38.60
2022-12-18T08:30:39.394Z,38.60
2022-12-18T08:31:42.026Z,38.60
2022-12-18T08:32:44.423Z,38.60
2022-12-18T08:33:53.141Z,38.70
2022-12-18T08:34:56.108Z,38.70
2022-12-18T08:36:00.560Z,37.60
2022-12-18T08:37:03.920Z,31.00
2022-12-18T08:38:06.295Z,33.90
2022-12-18T08:39:08.653Z,35.50
2022-12-18T08:40:11.502Z,38.40
2022-12-18T08:41:16.079Z,39.10
2022-12-18T08:42:38.264Z,40.20
2022-12-18T08:43:59.963Z,38.70
2022-12-18T08:45:02.445Z,38.90
2022-12-18T08:46:04.864Z,38.90
2022-12-18T08:47:08.640Z,38.80
2022-12-18T08:48:11.074Z,38.60
2022-12-18T08:49:13.592Z,38.50
2022-12-18T08:50:16.001Z,38.50
2022-12-18T08:51:18.701Z,38.60
2022-12-18T08:52:21.122Z,39.10
2022-12-18T08:53:27.561Z,38.70
2022-12-18T08:54:32.642Z,38.80
2022-12-18T08:55:35.065Z,38.70
2022-12-18T08:56:37.371Z,38.70
2022-12-18T08:57:39.704Z,38.70
2022-12-18T08:58:43.531Z,38.80
2022-12-18T08:59:45.780Z,38.90
2022-12-18T09:00:48.195Z,38.90
2022-12-18T09:01:50.673Z,39.00
2022-12-18T09:02:53.202Z,39.00
2022-12-18T09:03:55.587Z,31.70
2022-12-18T09:04:58.025Z,32.90
2022-12-18T09:06:00.555Z,35.70
2022-12-18T09:07:03.816Z,37.30
2022-12-18T09:08:06.173Z,37.30
2022-12-18T09:09:08.566Z,37.60
2022-12-18T09:10:10.881Z,38.20
2022-12-18T09:11:22.677Z,38.40
2022-12-18T09:12:26.091Z,38.80
2022-12-18T09:13:28.543Z,38.80
2022-12-18T09:14:30.916Z,39.20
2022-12-18T09:15:33.230Z,39.40
2022-12-18T09:16:36.039Z,39.50
2022-12-18T09:17:38.531Z,39.40
2022-12-18T09:18:41.371Z,39.50
2022-12-18T09:19:44.303Z,39.40
2022-12-18T09:20:47.471Z,39.40
2022-12-18T09:21:49.809Z,39.30
2022-12-18T09:22:52.128Z,39.30
2022-12-18T09:23:56.045Z,39.30
2022-12-18T09:24:58.379Z,39.30
2022-12-18T09:26:00.810Z,39.30
2022-12-18T09:27:03.863Z,39.30
2022-12-18T09:28:11.216Z,39.20
2022-12-18T09:29:13.594Z,39.20
2022-12-18T09:30:15.961Z,39.10
2022-12-18T09:31:21.639Z,39.10
2022-12-18T09:32:24.767Z,39.10
2022-12-18T09:33:27.079Z,39.10
2022-12-18T09:34:29.481Z,39.20
2022-12-18T09:35:32.153Z,39.20
2022-12-18T09:36:34.717Z,39.20
2022-12-18T09:37:37.053Z,39.10
2022-12-18T09:38:39.896Z,39.00
2022-12-18T09:39:42.554Z,39.10
2022-12-18T09:41:00.629Z,39.00
2022-12-18T09:42:03.320Z,39.10
2022-12-18T09:43:07.566Z,32.10
2022-12-18T09:44:15.358Z,34.00
2022-12-18T09:45:18.968Z,31.90
2022-12-18T09:46:29.318Z,36.20
2022-12-18T09:47:40.104Z,33.90
2022-12-18T09:48:47.122Z,35.00
2022-12-18T09:49:57.164Z,37.40
2022-12-18T09:51:11.919Z,37.60
2022-12-18T09:52:30.964Z,38.90
2022-12-18T09:53:38.103Z,38.70
2022-12-18T09:54:41.908Z,38.60
2022-12-18T09:55:47.645Z,38.60
2022-12-18T09:56:50.079Z,38.60
2022-12-18T09:57:57.238Z,38.60
2022-12-18T09:59:01.203Z,38.70
2022-12-18T10:00:15.930Z,38.80
2022-12-18T10:01:24.021Z,38.80
2022-12-18T10:02:28.474Z,38.70
2022-12-18T10:03:30.991Z,38.80
2022-12-18T10:04:33.597Z,38.90
2022-12-18T10:06:00.254Z,38.90
2022-12-18T10:07:30.433Z,39.30
2022-12-18T10:08:39.686Z,39.20
2022-12-18T10:10:06.514Z,38.90
2022-12-18T10:11:40.859Z,38.90
2022-12-18T10:12:48.892Z,38.80
2022-12-18T10:14:11.725Z,38.80
2022-12-18T10:15:27.842Z,39.00
2022-12-18T10:16:58.569Z,38.90
2022-12-18T10:18:40.192Z,38.90
2022-12-18T10:19:50.421Z,38.90
2022-12-18T10:20:58.665Z,38.90
2022-12-18T10:22:42.303Z,39.00
2022-12-18T10:24:29.654Z,39.00
2022-12-18T10:25:34.815Z,39.10
2022-12-18T10:26:37.299Z,39.00
2022-12-18T10:27:39.775Z,39.00
2022-12-18T10:28:43.121Z,39.10
2022-12-18T10:29:47.150Z,39.70
2022-12-18T10:30:49.557Z,39.10
2022-12-18T10:31:52.619Z,39.10
2022-12-18T10:32:57.155Z,39.10
2022-12-18T10:33:59.595Z,39.20
2022-12-18T10:35:02.209Z,39.20
2022-12-18T10:36:05.864Z,39.20
2022-12-18T10:37:18.400Z,39.10
2022-12-18T10:38:23.720Z,39.10
2022-12-18T10:39:27.372Z,33.30
2022-12-18T10:40:30.377Z,32.10
2022-12-18T10:41:33.311Z,34.40
2022-12-18T10:42:36.214Z,36.00
2022-12-18T10:43:40.158Z,37.00
2022-12-18T10:44:42.758Z,37.90
2022-12-18T10:46:09.580Z,38.40
2022-12-18T10:47:21.174Z,38.70
2022-12-18T10:48:24.916Z,38.80
2022-12-18T10:49:30.425Z,38.80
2022-12-18T10:51:09.170Z,39.00
2022-12-18T10:52:19.254Z,39.10
2022-12-18T10:53:30.416Z,39.10
2022-12-18T10:54:34.251Z,39.20
2022-12-18T10:55:40.703Z,39.30
2022-12-18T10:56:43.748Z,39.20
2022-12-18T10:57:47.135Z,39.30
2022-12-18T10:58:58.963Z,39.40
2022-12-18T11:00:35.047Z,39.40
2022-12-18T11:01:55.887Z,39.40
2022-12-18T11:02:58.955Z,39.40
2022-12-18T11:04:08.474Z,39.30
2022-12-18T11:05:55.980Z,39.40
2022-12-18T11:07:05.476Z,39.40
2022-12-18T11:08:23.676Z,39.40
2022-12-18T11:09:34.669Z,39.50
2022-12-18T11:10:38.728Z,39.60
2022-12-18T11:11:41.103Z,39.70
2022-12-18T11:12:43.449Z,37.80
2022-12-18T11:14:00.124Z,33.40
2022-12-18T11:15:02.622Z,34.30
2022-12-18T11:16:05.241Z,36.50
2022-12-18T11:17:32.491Z,37.10
2022-12-18T11:18:36.924Z,38.00
2022-12-18T11:19:41.942Z,38.70
2022-12-18T11:21:10.939Z,38.90
2022-12-18T11:22:36.093Z,39.10
2022-12-18T11:23:51.711Z,39.20
2022-12-18T11:26:36.732Z,39.20
2022-12-18T11:27:40.655Z,39.30
2022-12-18T11:28:52.686Z,39.30
2022-12-18T11:30:20.536Z,39.20
2022-12-18T11:31:25.414Z,39.20
2022-12-18T11:32:37.751Z,39.20
2022-12-18T11:34:04.898Z,39.30
2022-12-18T11:35:10.326Z,39.30
2022-12-18T11:36:13.736Z,39.30
2022-12-18T11:37:20.060Z,39.40
2022-12-18T11:38:28.097Z,39.30
2022-12-18T11:39:45.897Z,39.30
2022-12-18T11:40:57.641Z,39.30
2022-12-18T11:42:26.222Z,39.40
2022-12-18T11:43:33.865Z,39.50
2022-12-18T11:45:07.489Z,39.50
2022-12-18T11:46:24.181Z,39.50
2022-12-18T11:47:39.360Z,33.60
2022-12-18T11:48:56.629Z,35.40
2022-12-18T11:50:02.443Z,36.10
2022-12-18T11:51:11.149Z,36.10
2022-12-18T11:52:31.911Z,36.60
2022-12-18T11:53:34.480Z,36.70
2022-12-18T11:54:37.135Z,36.80
2022-12-18T11:56:16.868Z,36.80
2022-12-18T11:57:43.246Z,36.20
2022-12-18T11:59:10.169Z,36.40
2022-12-18T12:00:19.829Z,35.50
2022-12-18T12:01:24.935Z,35.20
2022-12-18T12:02:34.816Z,36.00
2022-12-18T12:03:49.579Z,35.60
2022-12-18T12:05:25.580Z,35.80
2022-12-18T12:06:34.897Z,36.90
2022-12-18T12:08:02.573Z,36.50
2022-12-18T12:09:26.147Z,36.60
2022-12-18T12:10:43.158Z,36.90
2022-12-18T12:11:51.329Z,35.60
2022-12-18T12:13:13.057Z,36.00
2022-12-18T12:14:36.347Z,36.70
2022-12-18T12:16:12.289Z,36.50
2022-12-18T12:17:22.704Z,36.60
2022-12-18T12:18:49.298Z,36.30
2022-12-18T12:20:16.796Z,36.60
2022-12-18T12:21:49.213Z,35.70
2022-12-18T12:23:27.364Z,36.00
2022-12-18T12:24:52.319Z,36.00
2022-12-18T12:26:01.194Z,36.30
2022-12-18T12:27:33.767Z,36.10
2022-12-18T12:28:51.639Z,36.10
2022-12-18T12:30:17.409Z,36.30
2022-12-18T12:31:38.229Z,36.50
2022-12-18T12:32:54.905Z,36.50
2022-12-18T12:34:00.770Z,36.80
2022-12-18T12:35:12.328Z,36.10
2022-12-18T12:36:47.789Z,35.60
2022-12-18T12:38:15.580Z,36.20
2022-12-18T12:39:22.612Z,35.80
2022-12-18T12:42:11.271Z,35.40
2022-12-18T12:43:32.114Z,35.50
2022-12-18T12:44:51.261Z,36.70
2022-12-18T12:46:05.209Z,35.60
2022-12-18T12:47:19.957Z,35.40
2022-12-18T12:48:28.398Z,35.60
2022-12-18T12:49:39.006Z,35.90
2022-12-18T12:50:43.678Z,36.10
2022-12-18T12:51:51.806Z,36.20
2022-12-18T12:52:56.712Z,35.80
2022-12-18T12:54:01.182Z,36.10
2022-12-18T12:55:13.078Z,36.00
2022-12-18T12:56:19.796Z,36.40
2022-12-18T12:57:34.370Z,35.80
2022-12-18T12:58:55.506Z,35.70
2022-12-18T13:00:11.188Z,35.10
2022-12-18T13:01:23.617Z,35.40
2022-12-18T13:02:48.489Z,36.40
2022-12-18T13:03:59.623Z,36.80
2022-12-18T13:05:07.434Z,34.90
2022-12-18T13:06:19.056Z,34.60
2022-12-18T13:07:25.486Z,35.00
2022-12-18T13:08:31.207Z,34.80
2022-12-18T13:10:17.560Z,35.50
2022-12-18T13:12:05.593Z,34.60
2022-12-18T13:13:10.988Z,35.00
2022-12-18T13:14:23.730Z,35.00
2022-12-18T13:15:47.123Z,34.90
2022-12-18T13:16:49.687Z,35.10
2022-12-18T13:18:08.867Z,35.10
2022-12-18T13:19:26.322Z,35.10
2022-12-18T13:20:35.534Z,35.40
2022-12-18T13:21:37.911Z,35.60
2022-12-18T13:22:40.200Z,37.20
2022-12-18T13:23:43.405Z,37.00
2022-12-18T13:24:46.297Z,35.80
2022-12-18T13:25:49.455Z,35.50
2022-12-18T13:26:52.073Z,35.10
2022-12-18T13:28:00.836Z,35.70
2022-12-18T13:29:05.801Z,36.20
2022-12-18T13:30:34.137Z,36.40
2022-12-18T13:31:42.838Z,36.80
2022-12-18T13:32:45.848Z,37.00
2022-12-18T13:35:23.772Z,37.30
2022-12-18T13:36:29.852Z,37.30
2022-12-18T13:37:33.677Z,37.40
2022-12-18T13:38:41.409Z,37.40
2022-12-18T13:39:44.606Z,37.30
2022-12-18T13:40:47.125Z,37.30
2022-12-18T13:42:34.015Z,37.30
2022-12-18T13:44:10.685Z,37.20
2022-12-18T13:45:38.973Z,37.20
2022-12-18T13:46:50.426Z,37.00
2022-12-18T13:47:52.837Z,37.10
2022-12-18T13:48:57.082Z,37.10
2022-12-18T13:50:00.020Z,37.20
2022-12-18T13:51:09.707Z,37.10
2022-12-18T13:52:25.350Z,37.00
2022-12-18T13:53:33.838Z,36.90
2022-12-18T13:54:42.204Z,36.90
2022-12-18T13:55:46.483Z,36.90
2022-12-18T13:56:49.567Z,36.80
2022-12-18T13:58:05.549Z,36.80
2022-12-18T13:59:34.009Z,36.80
2022-12-18T14:00:36.785Z,36.80
2022-12-18T14:02:02.457Z,36.70
2022-12-18T14:03:22.416Z,36.80
2022-12-18T14:04:33.209Z,36.70
2022-12-18T14:05:40.166Z,36.80
2022-12-18T14:06:47.488Z,36.80
2022-12-18T14:07:50.485Z,37.30
2022-12-18T14:08:54.068Z,37.30
2022-12-18T14:10:41.941Z,37.20
2022-12-18T14:11:26.669Z,37.20
2022-12-18T14:12:51.770Z,31.00
2022-12-18T14:13:54.221Z,32.70
2022-12-18T14:14:57.172Z,35.10
2022-12-18T14:16:03.809Z,36.10
2022-12-18T14:17:11.413Z,36.60
2022-12-18T14:18:25.460Z,37.00
2022-12-18T14:19:28.844Z,37.50
2022-12-18T14:20:33.764Z,37.90
2022-12-18T14:21:38.235Z,38.10
2022-12-18T14:22:47.756Z,38.20
2022-12-18T14:24:03.356Z,38.00
2022-12-18T14:25:14.494Z,38.10
2022-12-18T14:26:31.634Z,37.90
2022-12-18T14:27:42.405Z,38.20
2022-12-18T14:28:45.711Z,38.20
2022-12-18T14:29:48.341Z,38.20
2022-12-18T14:30:51.305Z,38.10
2022-12-18T14:32:17.287Z,38.00
2022-12-18T14:33:23.517Z,37.90
2022-12-18T14:34:27.842Z,38.00
2022-12-18T14:35:30.685Z,38.10
2022-12-18T14:36:33.086Z,38.00
2022-12-18T14:37:36.376Z,38.00
2022-12-18T14:38:40.928Z,38.10
2022-12-18T14:39:54.320Z,38.00
2022-12-18T14:40:59.710Z,38.10